地図

経路データ

SID SEASON NUMBER BASIN SUBBASIN NAME ISO_TIME NATURE LAT LON WMO_WIND WMO_PRES WMO_AGENCY TRACK_TYPE DIST2LAND LANDFALL IFLAG USA_AGENCY USA_ATCF_ID USA_LAT USA_LON USA_RECORD USA_STATUS USA_WIND USA_PRES USA_SSHS USA_R34_NE USA_R34_SE USA_R34_SW USA_R34_NW USA_R50_NE USA_R50_SE USA_R50_SW USA_R50_NW USA_R64_NE USA_R64_SE USA_R64_SW USA_R64_NW USA_POCI USA_ROCI USA_RMW USA_EYE TOKYO_LAT TOKYO_LON TOKYO_GRADE TOKYO_WIND TOKYO_PRES TOKYO_R50_DIR TOKYO_R50_LONG TOKYO_R50_SHORT TOKYO_R30_DIR TOKYO_R30_LONG TOKYO_R30_SHORT TOKYO_LAND CMA_LAT CMA_LON CMA_CAT CMA_WIND CMA_PRES HKO_LAT HKO_LON HKO_CAT HKO_WIND HKO_PRES NEWDELHI_LAT NEWDELHI_LON NEWDELHI_GRADE NEWDELHI_WIND NEWDELHI_PRES NEWDELHI_CI NEWDELHI_DP NEWDELHI_POCI REUNION_LAT REUNION_LON REUNION_TYPE REUNION_WIND REUNION_PRES REUNION_TNUM REUNION_CI REUNION_RMW REUNION_R34_NE REUNION_R34_SE REUNION_R34_SW REUNION_R34_NW REUNION_R50_NE REUNION_R50_SE REUNION_R50_SW REUNION_R50_NW REUNION_R64_NE REUNION_R64_SE REUNION_R64_SW REUNION_R64_NW BOM_LAT BOM_LON BOM_TYPE BOM_WIND BOM_PRES BOM_TNUM BOM_CI BOM_RMW BOM_R34_NE BOM_R34_SE BOM_R34_SW BOM_R34_NW BOM_R50_NE BOM_R50_SE BOM_R50_SW BOM_R50_NW BOM_R64_NE BOM_R64_SE BOM_R64_SW BOM_R64_NW BOM_ROCI BOM_POCI BOM_EYE BOM_POS_METHOD BOM_PRES_METHOD NADI_LAT NADI_LON NADI_CAT NADI_WIND NADI_PRES WELLINGTON_LAT WELLINGTON_LON WELLINGTON_WIND WELLINGTON_PRES DS824_LAT DS824_LON DS824_STAGE DS824_WIND DS824_PRES TD9636_LAT TD9636_LON TD9636_STAGE TD9636_WIND TD9636_PRES TD9635_LAT TD9635_LON TD9635_WIND TD9635_PRES TD9635_ROCI NEUMANN_LAT NEUMANN_LON NEUMANN_CLASS NEUMANN_WIND NEUMANN_PRES MLC_LAT MLC_LON MLC_CLASS MLC_WIND MLC_PRES USA_GUST BOM_GUST BOM_GUST_PER REUNION_GUST REUNION_GUST_PER USA_SEAHGT USA_SEARAD_NE USA_SEARAD_SE USA_SEARAD_SW USA_SEARAD_NW STORM_SPEED STORM_DIR
1898246N41318 1898 36 NA NA NOT_NAMED 1898-09-03 06:00:00 TS 40.8000 -42.1000 70 hurdat_atl main 1095 1085 O_____________ hurdat_atl AL031898 40.8000 -42.1000 HU 70 1 15 33
1898246N41318 1898 36 NA NA NOT_NAMED 1898-09-03 09:00:00 TS 41.4331 -41.5553 main 1085 1080 P_____________ AL031898 41.4331 -41.5553 HU 70 1 15 34
1898246N41318 1898 36 NA NA NOT_NAMED 1898-09-03 12:00:00 TS 42.0000 -41.0000 70 hurdat_atl main 1087 1087 O_____________ hurdat_atl AL031898 42.0000 -41.0000 HU 70 1 13 39
1898246N41318 1898 36 NA NA NOT_NAMED 1898-09-03 15:00:00 TS 42.4644 -40.4280 main 1100 1100 P_____________ AL031898 42.4644 -40.4280 HU 70 1 13 45
1898246N41318 1898 36 NA NA NOT_NAMED 1898-09-03 18:00:00 TS 42.9000 -39.8000 70 hurdat_atl main 1120 1120 O_____________ hurdat_atl AL031898 42.9000 -39.8000 HU 70 1 14 47
1898246N41318 1898 36 NA NA NOT_NAMED 1898-09-03 21:00:00 TS 43.3926 -39.0647 main 1141 1141 P_____________ AL031898 43.3926 -39.0647 HU 70 1 15 47
1898246N41318 1898 36 NA NA NOT_NAMED 1898-09-04 00:00:00 TS 43.9000 -38.3000 70 hurdat_atl main 1174 1174 O_____________ hurdat_atl AL031898 43.9000 -38.3000 HU 70 1 15 47
1898246N41318 1898 36 NA NA NOT_NAMED 1898-09-04 03:00:00 TS 44.3919 -37.5909 main 1202 1202 P_____________ AL031898 44.3919 -37.5909 HU 70 1 14 45
1898246N41318 1898 36 NA NA NOT_NAMED 1898-09-04 06:00:00 TS 44.9000 -36.9000 70 hurdat_atl main 1235 1235 O_____________ hurdat_atl AL031898 44.9000 -36.9000 HU 70 1 15 43
1898246N41318 1898 36 NA NA NOT_NAMED 1898-09-04 09:00:00 TS 45.4648 -36.1851 main 1267 1267 P_____________ AL031898 45.4648 -36.1851 HU 70 1 15 42
1898246N41318 1898 36 NA NA NOT_NAMED 1898-09-04 12:00:00 TS 46.0000 -35.5000 70 hurdat_atl main 1305 1305 O_____________ hurdat_atl AL031898 46.0000 -35.5000 HU 70 1 13 43
1898246N41318 1898 36 NA NA NOT_NAMED 1898-09-04 15:00:00 TS 46.4140 -34.9047 main 1340 1340 P_____________ AL031898 46.4140 -34.9047 HU 70 1 11 46
1898246N41318 1898 36 NA NA NOT_NAMED 1898-09-04 18:00:00 TS 46.8000 -34.3000 70 hurdat_atl main 1376 1376 O_____________ hurdat_atl AL031898 46.8000 -34.3000 HU 70 1 12 48
1898246N41318 1898 36 NA NA NOT_NAMED 1898-09-04 21:00:00 TS 47.2426 -33.5647 main 1421 1421 P_____________ AL031898 47.2426 -33.5647 HU 70 1 14 49
1898246N41318 1898 36 NA NA NOT_NAMED 1898-09-05 00:00:00 TS 47.7000 -32.8000 70 hurdat_atl main 1474 1474 O_____________ hurdat_atl AL031898 47.7000 -32.8000 HU 70 1 13 48
1898246N41318 1898 36 NA NA NOT_NAMED 1898-09-05 03:00:00 TS 48.1494 -32.0911 main 1504 1472 P_____________ AL031898 48.1494 -32.0911 HU 70 1 13 46
1898246N41318 1898 36 NA NA NOT_NAMED 1898-09-05 06:00:00 TS 48.6000 -31.4000 70 hurdat_atl main 1476 1452 O_____________ hurdat_atl AL031898 48.6000 -31.4000 HU 70 1 12 46
1898246N41318 1898 36 NA NA NOT_NAMED 1898-09-05 09:00:00 TS 49.0262 -30.7412 main 1456 1389 P_____________ AL031898 49.0262 -30.7412 HU 65 1 13 46
1898246N41318 1898 36 NA NA NOT_NAMED 1898-09-05 12:00:00 ET 49.5000 -30.0000 60 hurdat_atl main 1389 1317 O_____________ hurdat_atl AL031898 49.5000 -30.0000 EX 60 -4 15 46
1898246N41318 1898 36 NA NA NOT_NAMED 1898-09-05 15:00:00 ET 50.0688 -29.0950 main 1307 1221 P_____________ AL031898 50.0688 -29.0950 EX 55 -4 18 47
1898246N41318 1898 36 NA NA NOT_NAMED 1898-09-05 18:00:00 ET 50.7000 -28.0000 50 hurdat_atl main 1214 1118 O_____________ hurdat_atl AL031898 50.7000 -28.0000 EX 50 -4 20 50
1898246N41318 1898 36 NA NA NOT_NAMED 1898-09-05 21:00:00 ET 51.3513 -26.7136 main 1109 1011 P_____________ AL031898 51.3513 -26.7136 EX 47 -4 21 52
1898246N41318 1898 36 NA NA NOT_NAMED 1898-09-06 00:00:00 ET 52.0000 -25.3000 45 hurdat_atl main 1005 O_____________ hurdat_atl AL031898 52.0000 -25.3000 EX 45 -4 22 53

IBTrACS Databaseについて

本データベースは、米国NOAAが公開する1842年以降の世界の熱帯低気圧のベストトラックデータアーカイブInternational Best Track Archive for Climate Stewardship (IBTrACS)を、ウェブで閲覧しやすい形式に変換したものです。

最終更新日:2021-11-26